Time;durP1;ratioP1;P1;durP2;ratioP2;P2;SDS_P1;SDS_P2;PMS_P1;PMS_P2;Temp;Humidity;BMP_temperature;BMP_pressure;BME280_temperature;BME280_humidity;BME280_pressure;Samples;Min_cycle;Max_cycle;Signal;HPM_P1;HPM_P2
2022/11/29 00:00:46;;;;;;;11.43;6.70;;;7.10;99.90;;;;;;5004014;28;20034;-77
2022/11/29 00:03:12;;;;;;;12.48;6.85;;;7.10;99.90;;;;;;5001523;28;20495;-77
2022/11/29 00:05:38;;;;;;;15.07;7.95;;;7.10;99.90;;;;;;5003240;28;20121;-77
2022/11/29 00:08:03;;;;;;;11.23;6.95;;;7.10;99.90;;;;;;4985435;28;20388;-77
2022/11/29 00:10:29;;;;;;;10.43;6.35;;;7.10;99.90;;;;;;5002058;28;20049;-78
2022/11/29 00:12:54;;;;;;;10.45;7.35;;;7.10;99.90;;;;;;5000923;28;20111;-77
2022/11/29 00:15:20;;;;;;;14.15;7.07;;;7.00;99.90;;;;;;4985726;28;20046;-77
2022/11/29 00:17:46;;;;;;;5.95;5.13;;;7.00;99.90;;;;;;5003481;28;20056;-77
2022/11/29 00:20:11;;;;;;;14.18;6.70;;;7.00;99.90;;;;;;5003083;28;20073;-77
2022/11/29 00:22:37;;;;;;;12.43;7.93;;;7.00;99.90;;;;;;5002446;28;20044;-77
2022/11/29 00:25:04;;;;;;;7.53;5.03;;;7.00;99.90;;;;;;5002994;28;20572;-77
2022/11/29 00:27:30;;;;;;;7.53;6.03;;;6.90;99.90;;;;;;4984689;28;20081;-77
2022/11/29 00:29:55;;;;;;;18.73;7.97;;;7.00;99.90;;;;;;5001183;28;20413;-77
2022/11/29 00:32:21;;;;;;;8.93;6.25;;;7.00;99.90;;;;;;5001764;28;20404;-77
2022/11/29 00:34:47;;;;;;;12.90;8.50;;;6.90;99.90;;;;;;5003142;28;20240;-77
2022/11/29 00:37:12;;;;;;;6.95;5.53;;;6.90;99.90;;;;;;5001104;28;20125;-77
2022/11/29 00:39:38;;;;;;;7.78;5.50;;;6.90;99.90;;;;;;5002847;28;20050;-77
2022/11/29 00:42:03;;;;;;;8.52;6.13;;;6.90;99.90;;;;;;5000539;28;20132;-77
2022/11/29 00:44:29;;;;;;;10.90;6.32;;;6.90;99.90;;;;;;5001656;28;20053;-77
2022/11/29 00:46:54;;;;;;;10.60;6.75;;;6.90;99.90;;;;;;5000990;28;20099;-77
2022/11/29 00:49:20;;;;;;;13.93;7.28;;;6.90;99.90;;;;;;5003185;28;20492;-78
2022/11/29 00:51:46;;;;;;;11.70;6.53;;;6.90;99.90;;;;;;4985622;28;20090;-78
2022/11/29 00:54:11;;;;;;;10.73;5.97;;;6.90;99.90;;;;;;5001670;28;20034;-77
2022/11/29 00:56:37;;;;;;;16.98;7.88;;;6.90;99.90;;;;;;5001426;28;20133;-77
2022/11/29 00:59:02;;;;;;;14.48;7.22;;;6.90;99.90;;;;;;5002363;28;20069;-77
2022/11/29 01:01:28;;;;;;;12.20;7.22;;;6.90;99.90;;;;;;5002563;28;20052;-77
2022/11/29 01:03:54;;;;;;;12.52;8.23;;;6.90;99.90;;;;;;5000625;28;20054;-77
2022/11/29 01:06:19;;;;;;;15.82;8.77;;;6.80;99.90;;;;;;5001828;28;20049;-78
2022/11/29 01:08:46;;;;;;;8.50;5.57;;;6.90;99.90;;;;;;5002258;28;20046;-77
2022/11/29 01:11:19;;;;;;;18.27;7.15;;;6.90;99.90;;;;;;5000428;28;20342;-77
2022/11/29 01:13:45;;;;;;;13.63;8.30;;;6.80;99.90;;;;;;5001117;28;20045;-77
2022/11/29 01:16:13;;;;;;;12.25;6.50;;;6.80;99.90;;;;;;5002055;28;20128;-77
2022/11/29 01:18:39;;;;;;;13.02;6.05;;;6.80;99.90;;;;;;5002245;28;20552;-77
2022/11/29 01:21:08;;;;;;;14.55;7.88;;;6.80;99.90;;;;;;5001964;28;20045;-77
2022/11/29 01:23:35;;;;;;;8.43;6.32;;;6.80;99.90;;;;;;5000908;28;20488;-78
2022/11/29 01:26:04;;;;;;;14.45;7.28;;;6.80;99.90;;;;;;5005175;28;20286;-78
2022/11/29 01:28:29;;;;;;;21.08;8.50;;;6.70;99.90;;;;;;5007124;28;20283;-77
2022/11/29 01:30:55;;;;;;;12.60;5.72;;;6.70;99.90;;;;;;5008752;28;20049;-77
2022/11/29 01:33:21;;;;;;;14.70;8.77;;;6.70;99.90;;;;;;5007057;28;20045;-78
2022/11/29 01:35:49;;;;;;;14.93;7.75;;;6.70;99.90;;;;;;5008875;28;20228;-78
2022/11/29 01:38:14;;;;;;;10.30;6.35;;;6.60;99.90;;;;;;5007333;28;20046;-77
2022/11/29 01:40:40;;;;;;;11.50;7.28;;;6.70;99.90;;;;;;5006930;28;20081;-77
2022/11/29 01:43:24;;;;;;;19.20;8.65;;;6.70;99.90;;;;;;5006949;28;20053;-78
2022/11/29 01:45:50;;;;;;;14.57;7.65;;;6.70;99.90;;;;;;5006927;28;20041;-78
2022/11/29 01:48:17;;;;;;;15.60;9.25;;;6.70;99.90;;;;;;5008734;28;20038;-77
2022/11/29 01:50:43;;;;;;;12.25;6.45;;;6.70;99.90;;;;;;5007412;28;20034;-77
2022/11/29 01:53:12;;;;;;;6.90;5.03;;;6.70;99.90;;;;;;5008093;28;20053;-78
2022/11/29 01:55:44;;;;;;;10.43;6.32;;;6.70;99.90;;;;;;5005981;28;20823;-77
2022/11/29 01:58:11;;;;;;;9.40;6.07;;;6.70;99.90;;;;;;5006968;28;20042;-77
2022/11/29 02:00:37;;;;;;;8.05;5.63;;;6.60;99.90;;;;;;5007119;28;20440;-77
2022/11/29 02:03:09;;;;;;;9.73;5.47;;;6.60;99.90;;;;;;4990337;28;20045;-77
2022/11/29 02:05:36;;;;;;;;;;;6.60;99.90;;;;;;5007723;28;20563;-77
2022/11/29 02:08:02;;;;;;;11.05;5.43;;;6.60;99.90;;;;;;5006915;28;19962;-77
2022/11/29 02:10:49;;;;;;;6.88;4.97;;;6.60;99.90;;;;;;5006013;28;20100;-77
2022/11/29 02:13:32;;;;;;;8.40;6.13;;;6.60;99.90;;;;;;5007179;28;20053;-77
2022/11/29 02:16:12;;;;;;;;;;;6.60;99.90;;;;;;5008662;28;20049;-77
2022/11/29 02:18:43;;;;;;;14.80;7.13;;;6.60;99.90;;;;;;5007059;28;20387;-77
2022/11/29 02:21:19;;;;;;;7.57;6.20;;;6.60;99.90;;;;;;5008323;28;20504;-77
2022/11/29 02:23:47;;;;;;;10.95;6.15;;;6.60;99.90;;;;;;5006820;28;20528;-77
2022/11/29 02:26:51;;;;;;;19.25;8.23;;;6.60;99.90;;;;;;4989652;28;20069;-77
2022/11/29 02:29:41;;;;;;;21.08;8.98;;;6.60;99.90;;;;;;5007255;28;20054;-77
2022/11/29 02:32:41;;;;;;;11.57;7.78;;;6.50;99.90;;;;;;4989583;28;20557;-77
2022/11/29 02:35:27;;;;;;;23.67;10.02;;;6.50;99.90;;;;;;5006476;28;20052;-77
2022/11/29 02:38:25;;;;;;;20.33;8.30;;;6.50;99.90;;;;;;5004995;28;20123;-77
2022/11/29 02:41:28;;;;;;;23.55;7.20;;;6.50;99.90;;;;;;5003544;28;20045;-78
2022/11/29 02:44:15;;;;;;;14.90;8.52;;;6.50;99.90;;;;;;5002774;28;20481;-77
2022/11/29 02:46:56;;;;;;;27.52;9.32;;;6.50;99.90;;;;;;5004673;28;20049;-77
2022/11/29 02:49:29;;;;;;;12.40;5.75;;;6.50;99.90;;;;;;5003594;28;20049;-77
2022/11/29 02:51:59;;;;;;;15.25;6.78;;;6.50;99.90;;;;;;5004530;28;20187;-77
2022/11/29 02:54:35;;;;;;;19.65;8.57;;;6.40;99.90;;;;;;5004586;28;20429;-77
2022/11/29 02:57:26;;;;;;;14.15;6.07;;;6.40;99.90;;;;;;5002972;28;20516;-77
2022/11/29 03:00:04;;;;;;;6.40;5.22;;;6.30;99.90;;;;;;5003018;28;20127;-77
2022/11/29 03:02:30;;;;;;;11.25;6.63;;;6.30;99.90;;;;;;5003123;28;20046;-77
2022/11/29 03:05:29;;;;;;;10.90;6.35;;;6.30;99.90;;;;;;5004442;28;20377;-77
2022/11/29 03:08:17;;;;;;;14.73;8.70;;;6.30;99.90;;;;;;5003894;28;20445;-77
2022/11/29 03:10:48;;;;;;;8.93;5.70;;;6.20;99.90;;;;;;5002036;28;20054;-77
2022/11/29 03:13:42;;;;;;;6.83;5.13;;;6.20;99.90;;;;;;5003534;28;20092;-78
2022/11/29 03:16:44;;;;;;;9.82;6.00;;;6.20;99.90;;;;;;5003340;28;20376;-77
2022/11/29 03:19:37;;;;;;;9.80;6.05;;;6.10;99.90;;;;;;4986857;28;20108;-77
2022/11/29 03:22:31;;;;;;;9.73;5.50;;;6.10;99.90;;;;;;5002740;28;20064;-78
2022/11/29 03:25:08;;;;;;;20.08;10.07;;;6.10;99.90;;;;;;5001357;28;20050;-77
2022/11/29 03:27:57;;;;;;;24.30;6.55;;;6.10;99.90;;;;;;5004516;28;20049;-77
2022/11/29 03:30:22;;;;;;;8.95;4.95;;;6.10;99.90;;;;;;5004412;28;20125;-77
2022/11/29 03:33:20;;;;;;;9.48;4.93;;;6.10;99.90;;;;;;5004623;28;20121;-78
2022/11/29 03:35:49;;;;;;;6.95;5.60;;;6.10;99.90;;;;;;5004107;28;20180;-77
2022/11/29 03:38:27;;;;;;;11.25;5.85;;;6.10;99.90;;;;;;5002758;28;20074;-77
2022/11/29 03:41:18;;;;;;;6.10;4.43;;;6.00;99.90;;;;;;5002843;28;20042;-77
2022/11/29 03:44:11;;;;;;;7.72;4.97;;;6.00;99.90;;;;;;5004442;28;20034;-77
2022/11/29 03:46:51;;;;;;;7.18;5.93;;;6.10;99.90;;;;;;5002506;28;20563;-78
2022/11/29 03:49:38;;;;;;;11.13;5.10;;;6.10;99.90;;;;;;5002508;28;20196;-78
2022/11/29 03:52:32;;;;;;;5.28;4.78;;;6.00;99.90;;;;;;5003493;28;20129;-77
2022/11/29 03:55:28;;;;;;;6.93;4.28;;;6.00;99.90;;;;;;4982723;28;20053;-77
2022/11/29 03:58:28;;;;;;;7.63;4.93;;;6.00;99.90;;;;;;4982118;28;20049;-77
2022/11/29 04:01:31;;;;;;;5.07;4.05;;;6.00;99.90;;;;;;4965836;28;20109;-77
2022/11/29 04:04:08;;;;;;;5.95;4.72;;;5.90;99.90;;;;;;4983416;28;20468;-77
2022/11/29 04:06:59;;;;;;;4.40;3.95;;;5.90;99.90;;;;;;4982077;28;20121;-77
2022/11/29 04:09:43;;;;;;;6.40;4.75;;;5.90;99.90;;;;;;4994820;28;20046;-77
2022/11/29 04:12:14;;;;;;;8.63;4.05;;;5.90;99.90;;;;;;5003083;28;20046;-77
2022/11/29 04:15:13;;;;;;;6.35;4.38;;;5.90;99.90;;;;;;5003289;28;20046;-77
2022/11/29 04:18:24;;;;;;;6.38;4.20;;;5.90;99.90;;;;;;5001756;28;20364;-77
2022/11/29 04:21:05;;;;;;;4.32;3.92;;;5.90;99.90;;;;;;4983481;28;20065;-78
2022/11/29 04:23:57;;;;;;;5.22;3.90;;;5.90;99.90;;;;;;5001823;28;20046;-77
2022/11/29 04:26:41;;;;;;;5.20;4.45;;;5.80;99.90;;;;;;4993177;28;20065;-77
2022/11/29 04:29:11;;;;;;;6.68;3.67;;;5.80;99.90;;;;;;4982625;28;20092;-78
2022/11/29 04:31:54;;;;;;;5.07;4.38;;;5.90;99.90;;;;;;4982098;28;20053;-77
2022/11/29 04:34:46;;;;;;;7.53;5.43;;;5.80;99.90;;;;;;4981782;28;20074;-77
2022/11/29 04:37:37;;;;;;;5.57;3.92;;;5.80;99.90;;;;;;4982824;28;20342;-77
2022/11/29 04:40:12;;;;;;;9.75;5.75;;;5.80;99.90;;;;;;4981067;28;20046;-78
2022/11/29 04:42:52;;;;;;;6.47;3.88;;;5.80;99.90;;;;;;4982445;28;20058;-77
2022/11/29 04:45:44;;;;;;;7.32;4.85;;;5.80;99.90;;;;;;4998525;28;20381;-77
2022/11/29 04:48:41;;;;;;;5.05;4.15;;;5.80;99.90;;;;;;4983183;28;20042;-77
2022/11/29 04:51:25;;;;;;;4.47;4.10;;;5.80;99.90;;;;;;4982538;28;20082;-77
2022/11/29 04:54:07;;;;;;;8.30;4.97;;;5.80;99.90;;;;;;4994516;28;20141;-77
2022/11/29 04:56:44;;;;;;;8.85;5.68;;;5.80;99.90;;;;;;5000553;28;20049;-77
2022/11/29 04:59:51;;;;;;;15.30;5.47;;;5.80;99.90;;;;;;5001875;28;20072;-78
2022/11/29 05:02:35;;;;;;;7.93;4.45;;;5.90;99.90;;;;;;4979579;28;20220;-77
2022/11/29 05:05:31;;;;;;;6.05;4.80;;;5.80;99.90;;;;;;5001457;28;20091;-76
2022/11/29 05:08:21;;;;;;;14.55;6.45;;;5.80;99.90;;;;;;5000392;28;20046;-78
2022/11/29 05:11:17;;;;;;;10.43;6.10;;;5.80;99.90;;;;;;5000624;28;20128;-77
2022/11/29 05:13:47;;;;;;;10.75;7.68;;;5.80;99.90;;;;;;5001199;28;20046;-77
2022/11/29 05:16:43;;;;;;;10.55;5.22;;;5.80;99.90;;;;;;4984153;28;20050;-78
2022/11/29 05:19:51;;;;;;;46.53;6.30;;;5.80;99.90;;;;;;5001108;28;20050;-77
2022/11/29 05:22:48;;;;;;;14.82;7.57;;;5.80;99.90;;;;;;5001548;28;20049;-77
2022/11/29 05:25:36;;;;;;;39.03;9.52;;;5.80;99.90;;;;;;5000111;28;20050;-77
2022/11/29 05:28:16;;;;;;;29.65;9.80;;;5.80;99.90;;;;;;4980877;28;20034;-76
2022/11/29 05:31:07;;;;;;;12.05;5.93;;;5.80;99.90;;;;;;4980946;28;20567;-77
2022/11/29 05:33:56;;;;;;;29.77;8.70;;;5.80;99.90;;;;;;4980743;28;20137;-77
2022/11/29 05:36:42;;;;;;;32.35;12.77;;;5.80;99.90;;;;;;4964593;28;20058;-77
2022/11/29 05:39:19;;;;;;;32.22;10.05;;;5.70;99.90;;;;;;4980889;28;20640;-77
2022/11/29 05:42:03;;;;;;;18.20;7.22;;;5.70;99.90;;;;;;4981854;28;20478;-78
2022/11/29 05:44:32;;;;;;;14.63;5.82;;;5.70;99.90;;;;;;4964901;28;20039;-77
2022/11/29 05:47:04;;;;;;;6.60;5.40;;;5.70;99.90;;;;;;4964462;28;20054;-78
2022/11/29 05:49:37;;;;;;;10.00;6.57;;;5.70;99.90;;;;;;4980915;28;20493;-77
2022/11/29 05:52:24;;;;;;;11.45;6.82;;;5.70;99.90;;;;;;4993321;28;20042;-77
2022/11/29 05:55:13;;;;;;;11.38;5.82;;;5.70;99.90;;;;;;4999347;28;20100;-77
2022/11/29 05:58:16;;;;;;;14.98;8.02;;;5.70;99.90;;;;;;5001899;28;20527;-77
2022/11/29 06:01:02;;;;;;;13.20;6.95;;;5.70;99.90;;;;;;5002037;28;20469;-77
2022/11/29 06:03:32;;;;;;;8.48;6.15;;;5.70;99.90;;;;;;4999673;28;20077;-77
2022/11/29 06:06:27;;;;;;;11.98;7.65;;;5.60;99.90;;;;;;5001368;28;20463;-77
2022/11/29 06:09:07;;;;;;;6.07;5.07;;;5.70;99.90;;;;;;4998472;28;20058;-77
2022/11/29 06:11:47;;;;;;;12.38;6.07;;;5.60;99.90;;;;;;5000776;28;20111;-77
2022/11/29 06:14:19;;;;;;;9.45;6.22;;;5.70;99.90;;;;;;4999670;28;20042;-77
2022/11/29 06:17:09;;;;;;;14.38;7.43;;;5.70;99.90;;;;;;4998023;28;20050;-77
2022/11/29 06:19:58;;;;;;;7.75;5.38;;;5.70;99.90;;;;;;4986324;28;20101;-77
2022/11/29 06:22:55;;;;;;;10.95;6.53;;;5.60;99.90;;;;;;4995826;28;20610;-77
2022/11/29 06:25:42;;;;;;;9.50;6.10;;;5.60;99.90;;;;;;5001213;28;20033;-78
2022/11/29 06:28:26;;;;;;;5.97;4.82;;;5.60;99.90;;;;;;5003565;28;20046;-77
2022/11/29 06:31:10;;;;;;;11.65;7.10;;;5.60;99.90;;;;;;5004139;28;20045;-77
2022/11/29 06:34:02;;;;;;;5.95;5.20;;;5.60;99.90;;;;;;5003544;28;20602;-77
2022/11/29 06:36:38;;;;;;;7.72;6.07;;;5.60;99.90;;;;;;5004563;28;20125;-77
2022/11/29 06:39:04;;;;;;;10.02;5.57;;;5.60;99.90;;;;;;4984405;28;20041;-77
2022/11/29 06:41:30;;;;;;;7.93;5.47;;;5.60;99.90;;;;;;5002395;28;20048;-77
2022/11/29 06:43:56;;;;;;;17.95;6.80;;;5.60;99.90;;;;;;4988317;28;20041;-78
2022/11/29 06:46:46;;;;;;;25.52;4.57;;;5.60;99.90;;;;;;5004356;28;20041;-77
2022/11/29 06:49:26;;;;;;;10.98;5.50;;;5.50;99.90;;;;;;5003188;28;20034;-78
2022/11/29 06:51:54;;;;;;;10.73;5.80;;;5.50;99.90;;;;;;5001643;28;20046;-78
2022/11/29 06:54:34;;;;;;;11.32;5.72;;;5.60;99.90;;;;;;5000007;28;20037;-76
2022/11/29 06:57:38;;;;;;;9.18;5.63;;;5.60;99.90;;;;;;5002717;28;20088;-76
2022/11/29 07:00:10;;;;;;;8.15;5.30;;;5.60;99.90;;;;;;5001995;28;20053;-76
2022/11/29 07:02:42;;;;;;;12.27;6.40;;;5.60;99.90;;;;;;5002446;28;20034;-76
2022/11/29 07:05:27;;;;;;;9.80;5.85;;;5.60;99.90;;;;;;5003282;28;20500;-76
2022/11/29 07:07:55;;;;;;;13.23;6.03;;;5.60;99.90;;;;;;5000437;28;20289;-77
2022/11/29 07:10:22;;;;;;;13.55;5.60;;;5.60;99.90;;;;;;4999298;28;20061;-79
2022/11/29 07:12:49;;;;;;;6.63;4.78;;;5.60;99.90;;;;;;5005410;28;20504;-78
2022/11/29 07:15:19;;;;;;;7.90;6.07;;;5.60;99.90;;;;;;5003936;28;20042;-77
2022/11/29 07:18:06;;;;;;;11.38;5.80;;;5.60;99.90;;;;;;5002801;28;20643;-76
2022/11/29 07:20:53;;;;;;;6.63;5.65;;;5.50;99.90;;;;;;5003545;28;20435;-77
2022/11/29 07:23:48;;;;;;;19.20;7.90;;;5.50;99.90;;;;;;4983348;28;20101;-77
2022/11/29 07:26:40;;;;;;;14.93;5.97;;;5.50;99.90;;;;;;4990369;28;20037;-76
2022/11/29 07:29:15;;;;;;;8.18;6.15;;;5.50;99.90;;;;;;4967754;28;21065;-77
2022/11/29 07:32:12;;;;;;;10.73;5.75;;;5.50;99.90;;;;;;5001746;28;20540;-77
2022/11/29 07:34:38;;;;;;;6.95;4.80;;;5.40;99.90;;;;;;5003434;28;20049;-77
2022/11/29 07:37:41;;;;;;;13.85;6.95;;;5.40;99.90;;;;;;5003660;28;20038;-78
2022/11/29 07:40:22;;;;;;;7.47;5.72;;;5.40;99.90;;;;;;5001629;28;20053;-77
2022/11/29 07:42:50;;;;;;;10.52;6.20;;;5.30;99.90;;;;;;5003010;28;20488;-77
2022/11/29 07:45:31;;;;;;;6.25;5.65;;;5.30;99.90;;;;;;5002781;28;20542;-77
2022/11/29 07:47:57;;;;;;;12.63;6.82;;;5.40;99.90;;;;;;5001536;28;20504;-78
2022/11/29 07:50:25;;;;;;;12.35;5.40;;;5.40;99.90;;;;;;5002816;28;20406;-78
2022/11/29 07:52:50;;;;;;;13.48;6.97;;;5.30;99.90;;;;;;5001613;28;20050;-78
2022/11/29 07:55:19;;;;;;;19.95;8.43;;;5.30;99.90;;;;;;5001434;28;20301;-77
2022/11/29 07:57:46;;;;;;;9.40;5.93;;;5.30;99.90;;;;;;5002230;28;20678;-77
2022/11/29 08:00:12;;;;;;;7.82;5.80;;;5.30;99.90;;;;;;5001718;28;20057;-78
2022/11/29 08:02:39;;;;;;;12.82;6.97;;;5.20;99.90;;;;;;5001458;28;20049;-77
2022/11/29 08:05:05;;;;;;;10.98;6.47;;;5.20;99.90;;;;;;5002898;28;20150;-77
2022/11/29 08:07:34;;;;;;;12.98;5.90;;;5.20;99.90;;;;;;5003380;28;20338;-78
2022/11/29 08:10:00;;;;;;;7.50;5.97;;;5.20;99.90;;;;;;5000535;28;20085;-77
2022/11/29 08:12:25;;;;;;;11.93;5.05;;;5.20;99.90;;;;;;5001771;28;20091;-78
2022/11/29 08:14:51;;;;;;;7.05;4.57;;;5.20;99.90;;;;;;5001539;28;20046;-77
2022/11/29 08:17:17;;;;;;;11.30;5.35;;;5.20;99.90;;;;;;5001778;28;20053;-77
2022/11/29 08:19:43;;;;;;;7.88;4.85;;;5.20;99.90;;;;;;5003072;28;20108;-77
2022/11/29 08:22:09;;;;;;;10.32;4.38;;;5.20;99.90;;;;;;5001082;28;20492;-77
2022/11/29 08:24:34;;;;;;;6.15;4.03;;;5.20;99.90;;;;;;5002027;28;20093;-78
2022/11/29 08:27:00;;;;;;;19.02;6.38;;;5.30;99.90;;;;;;5002271;28;20076;-77
2022/11/29 08:29:26;;;;;;;9.10;4.55;;;5.30;99.90;;;;;;5002613;28;20139;-78
2022/11/29 08:31:52;;;;;;;12.98;4.82;;;5.30;99.90;;;;;;5001435;28;20038;-77
2022/11/29 08:34:19;;;;;;;6.68;5.28;;;5.30;99.90;;;;;;5001606;28;20049;-77
2022/11/29 08:36:45;;;;;;;12.98;6.45;;;5.30;99.90;;;;;;5001873;28;20492;-77
2022/11/29 08:39:10;;;;;;;11.07;5.03;;;5.30;99.90;;;;;;4999819;28;20053;-78
2022/11/29 08:41:36;;;;;;;13.05;5.88;;;5.40;99.90;;;;;;5001101;28;20050;-77
2022/11/29 08:44:04;;;;;;;11.75;6.10;;;5.50;99.90;;;;;;5002042;28;20045;-77
2022/11/29 08:49:13;;;;;;;8.77;4.97;;;5.70;99.90;;;;;;5000970;28;20049;-77
2022/11/29 08:51:39;;;;;;;7.18;4.63;;;5.70;99.90;;;;;;5000963;28;20559;-78
2022/11/29 08:54:04;;;;;;;11.68;6.38;;;5.80;99.90;;;;;;5001615;28;20034;-77
2022/11/29 08:56:30;;;;;;;13.88;5.85;;;5.80;99.90;;;;;;5002153;28;20492;-78
2022/11/29 08:58:56;;;;;;;22.67;5.50;;;5.90;99.90;;;;;;5000747;28;20050;-77
2022/11/29 09:01:21;;;;;;;11.38;5.78;;;6.00;99.90;;;;;;5001162;28;20381;-77
2022/11/29 09:03:59;;;;;;;20.23;5.45;;;6.00;99.90;;;;;;5001799;28;20389;-77
2022/11/29 09:06:30;;;;;;;12.55;6.03;;;6.10;99.90;;;;;;4984563;28;20050;-77
2022/11/29 09:08:57;;;;;;;10.47;6.03;;;6.20;99.90;;;;;;5000903;28;20799;-77
2022/11/29 09:11:24;;;;;;;20.33;6.35;;;6.20;99.90;;;;;;5000487;28;20378;-77
2022/11/29 09:13:52;;;;;;;19.13;6.93;;;6.30;99.90;;;;;;5001962;28;20046;-77
2022/11/29 09:16:21;;;;;;;9.32;5.93;;;6.40;99.90;;;;;;4984671;28;20061;-77
2022/11/29 09:18:50;;;;;;;11.70;6.35;;;6.40;99.90;;;;;;4984333;28;20548;-77
2022/11/29 09:21:16;;;;;;;20.77;7.68;;;6.50;99.90;;;;;;5001096;28;20049;-77
2022/11/29 09:23:43;;;;;;;10.25;6.38;;;6.70;99.90;;;;;;5000312;28;20042;-77
2022/11/29 09:26:10;;;;;;;22.63;6.57;;;6.70;99.90;;;;;;4983333;28;20045;-77
2022/11/29 09:28:36;;;;;;;15.10;7.15;;;6.80;99.90;;;;;;5000840;28;20073;-77
2022/11/29 09:31:06;;;;;;;25.63;6.95;;;6.90;99.90;;;;;;5000061;28;20200;-77
2022/11/29 09:33:32;;;;;;;21.17;7.75;;;7.00;99.90;;;;;;5001749;28;20781;-77
2022/11/29 09:35:59;;;;;;;22.30;10.35;;;7.10;99.90;;;;;;4983623;28;20219;-77
2022/11/29 09:38:24;;;;;;;18.70;7.03;;;7.20;99.90;;;;;;5001866;28;20630;-77
2022/11/29 09:40:54;;;;;;;25.25;7.70;;;7.20;99.90;;;;;;4999640;28;20049;-77
2022/11/29 09:43:45;;;;;;;17.05;6.35;;;7.20;99.90;;;;;;5000288;28;20053;-77
2022/11/29 09:46:20;;;;;;;24.15;7.00;;;7.30;99.90;;;;;;5002159;28;20053;-77
2022/11/29 09:49:22;;;;;;;18.02;7.40;;;7.40;99.90;;;;;;5004700;28;20054;-77
2022/11/29 09:51:58;;;;;;;22.80;8.75;;;7.40;99.90;;;;;;5005027;28;20091;-76
2022/11/29 09:54:32;;;;;;;13.98;6.80;;;7.50;99.90;;;;;;5003003;28;20056;-77
2022/11/29 09:56:58;;;;;;;31.02;7.55;;;7.60;99.90;;;;;;5004146;28;20097;-77
2022/11/29 09:59:30;;;;;;;17.92;7.53;;;7.50;99.90;;;;;;5005153;28;20049;-77
2022/11/29 10:02:37;;;;;;;23.10;7.70;;;7.50;99.90;;;;;;5004593;28;20393;-77
2022/11/29 10:05:10;;;;;;;49.00;10.80;;;7.60;99.90;;;;;;4994216;28;20062;-76
2022/11/29 10:07:59;;;;;;;26.17;10.27;;;7.60;99.90;;;;;;5005439;28;20057;-77
2022/11/29 10:10:39;;;;;;;20.13;7.68;;;7.60;99.90;;;;;;5003048;28;20054;-77
2022/11/29 10:13:14;;;;;;;19.80;8.55;;;7.70;99.90;;;;;;5005032;28;20050;-77
2022/11/29 10:15:43;;;;;;;28.55;9.00;;;7.70;99.90;;;;;;5003765;28;20034;-77
2022/11/29 10:18:37;;;;;;;21.17;9.90;;;7.70;99.90;;;;;;5005160;28;20137;-77
2022/11/29 10:21:10;;;;;;;16.45;8.32;;;7.70;99.90;;;;;;5003527;28;20133;-77
2022/11/29 10:23:42;;;;;;;19.70;8.35;;;7.70;99.90;;;;;;5005107;28;20044;-77
2022/11/29 10:26:10;;;;;;;59.22;10.38;;;7.80;99.90;;;;;;5003211;28;20298;-77
2022/11/29 10:28:37;;;;;;;28.45;10.02;;;7.80;99.90;;;;;;5003142;28;20077;-77
2022/11/29 10:31:25;;;;;;;29.20;7.57;;;7.90;99.90;;;;;;5004774;28;20042;-77
2022/11/29 10:33:52;;;;;;;24.63;8.95;;;8.00;99.90;;;;;;5004250;28;20128;-77
2022/11/29 10:36:21;;;;;;;28.77;8.60;;;8.00;99.90;;;;;;5004874;28;20053;-77
2022/11/29 10:38:49;;;;;;;34.05;9.88;;;8.10;99.90;;;;;;5002365;28;20050;-77
2022/11/29 10:41:20;;;;;;;20.15;9.55;;;8.10;99.90;;;;;;4997156;28;20041;-77
2022/11/29 10:43:47;;;;;;;19.80;7.20;;;8.20;99.90;;;;;;4999537;28;20125;-77
2022/11/29 10:46:23;;;;;;;31.52;10.07;;;8.30;99.90;;;;;;5003488;28;20651;-78
2022/11/29 10:48:49;;;;;;;25.40;8.20;;;8.30;99.90;;;;;;4986586;28;20064;-77
2022/11/29 10:51:16;;;;;;;22.38;8.80;;;8.40;99.90;;;;;;5005189;28;20050;-76
2022/11/29 10:53:43;;;;;;;29.23;11.00;;;8.40;99.90;;;;;;5002407;28;20096;-77
2022/11/29 10:56:23;;;;;;;32.00;10.25;;;8.40;99.90;;;;;;5003692;28;20084;-77
2022/11/29 10:59:04;;;;;;;24.25;9.70;;;8.50;99.90;;;;;;4999771;28;20042;-78
2022/11/29 11:01:37;;;;;;;18.05;8.73;;;8.60;99.90;;;;;;4977339;28;20037;-78
2022/11/29 11:04:08;;;;;;;17.70;7.82;;;8.60;99.90;;;;;;5003768;28;20064;-78
2022/11/29 11:07:00;;;;;;;26.27;8.77;;;8.70;99.90;;;;;;5003389;28;20057;-78
2022/11/29 11:09:47;;;;;;;22.10;7.20;;;8.70;99.90;;;;;;5003261;28;20280;-78
2022/11/29 11:12:13;;;;;;;17.17;8.52;;;8.80;99.90;;;;;;5019512;28;20132;-78
2022/11/29 11:14:39;;;;;;;21.83;8.73;;;8.80;99.90;;;;;;5002919;28;20133;-78
2022/11/29 11:17:31;;;;;;;23.73;9.52;;;8.80;99.90;;;;;;5002688;28;20472;-78
2022/11/29 11:20:03;;;;;;;25.33;9.45;;;8.80;99.90;;;;;;4998625;28;20046;-78
2022/11/29 11:22:31;;;;;;;27.55;10.55;;;8.80;99.90;;;;;;4995929;28;20365;-79
2022/11/29 11:25:00;;;;;;;25.42;11.35;;;8.80;99.90;;;;;;4999637;28;20056;-78
2022/11/29 11:27:30;;;;;;;27.13;11.25;;;8.80;99.90;;;;;;4986153;28;20127;-79
2022/11/29 11:29:56;;;;;;;25.20;10.65;;;8.80;99.90;;;;;;5000227;28;20052;-79
2022/11/29 11:32:22;;;;;;;27.33;14.23;;;8.80;99.90;;;;;;5004197;28;20057;-76
2022/11/29 11:34:59;;;;;;;28.70;14.60;;;8.80;99.90;;;;;;4995703;28;20081;-80
2022/11/29 11:37:31;;;;;;;34.85;14.80;;;8.80;99.90;;;;;;4959285;28;20107;-80
2022/11/29 11:40:19;;;;;;;38.20;15.35;;;8.80;99.90;;;;;;4977326;28;20054;-80
2022/11/29 11:42:45;;;;;;;27.52;15.70;;;8.70;99.90;;;;;;4977240;28;20064;-80
2022/11/29 11:45:11;;;;;;;55.63;19.23;;;8.70;99.90;;;;;;4974809;28;20119;-78
2022/11/29 11:47:50;;;;;;;39.63;16.00;;;8.70;99.90;;;;;;4997390;28;20444;-78
2022/11/29 11:50:27;;;;;;;33.55;16.30;;;8.70;99.90;;;;;;5013109;28;20543;-78
2022/11/29 11:52:56;;;;;;;34.83;15.90;;;8.70;99.90;;;;;;5003240;28;20128;-79
2022/11/29 11:55:42;;;;;;;38.85;15.98;;;8.70;99.90;;;;;;5002326;28;20141;-79
2022/11/29 11:58:15;;;;;;;38.13;16.90;;;8.70;99.90;;;;;;4985671;28;20050;-79
2022/11/29 12:00:50;;;;;;;41.33;16.52;;;8.70;99.90;;;;;;5000664;28;20056;-78
2022/11/29 12:03:36;;;;;;;28.65;14.02;;;8.70;99.90;;;;;;5003689;28;20057;-80
2022/11/29 12:06:40;;;;;;;29.45;15.02;;;8.70;99.90;;;;;;5003947;28;20157;-78
2022/11/29 12:09:22;;;;;;;41.33;16.88;;;8.70;99.90;;;;;;5002674;28;20034;-80
2022/11/29 12:12:02;;;;;;;28.43;16.67;;;8.80;99.90;;;;;;5003581;28;20527;-81
2022/11/29 12:14:38;;;;;;;35.08;17.35;;;8.80;99.90;;;;;;5004435;28;20042;-81
2022/11/29 12:17:43;;;;;;;48.60;21.55;;;8.90;99.90;;;;;;5002573;28;20091;-80
2022/11/29 12:20:21;;;;;;;30.85;17.90;;;8.80;99.90;;;;;;4964272;28;20725;-80
2022/11/29 12:23:04;;;;;;;34.83;17.02;;;8.90;99.90;;;;;;4995817;28;20045;-81
2022/11/29 12:25:34;;;;;;;37.47;17.85;;;8.90;99.90;;;;;;4989284;28;20061;-81
2022/11/29 12:28:00;;;;;;;32.78;15.52;;;8.90;99.90;;;;;;4998401;28;20500;-81
2022/11/29 12:30:26;;;;;;;28.40;15.45;;;9.00;99.90;;;;;;5002194;28;20125;-80
2022/11/29 12:33:13;;;;;;;32.13;18.70;;;9.00;99.90;;;;;;5002782;28;20052;-82
2022/11/29 12:35:51;;;;;;;35.90;17.80;;;9.00;99.90;;;;;;5001882;28;20052;-77
2022/11/29 12:38:52;;;;;;;35.60;19.63;;;9.00;99.90;;;;;;4999704;28;20061;-78
2022/11/29 12:41:45;;;;;;;36.78;18.67;;;9.00;99.90;;;;;;5002246;28;20046;-77
2022/11/29 12:44:22;;;;;;;33.97;17.20;;;9.00;99.90;;;;;;5000107;28;20053;-79
2022/11/29 12:46:58;;;;;;;32.10;16.17;;;9.10;99.90;;;;;;4987975;28;20042;-80
2022/11/29 12:49:33;;;;;;;39.92;18.55;;;9.10;99.90;;;;;;4991318;28;20397;-78
2022/11/29 12:51:58;;;;;;;32.90;16.40;;;9.10;99.90;;;;;;5016336;28;20045;-79
2022/11/29 12:54:30;;;;;;;34.22;17.42;;;9.10;99.90;;;;;;5002201;28;20026;-79
2022/11/29 12:56:55;;;;;;;39.30;18.83;;;9.10;99.90;;;;;;4994315;28;20125;-80
2022/11/29 12:59:40;;;;;;;33.45;16.85;;;9.10;99.90;;;;;;4992566;28;20157;-80
2022/11/29 13:02:23;;;;;;;32.08;17.23;;;9.20;99.90;;;;;;5002037;28;20046;-79
2022/11/29 13:05:08;;;;;;;27.50;15.15;;;9.10;99.90;;;;;;5002033;28;20056;-80
2022/11/29 13:07:46;;;;;;;29.40;16.58;;;9.10;99.90;;;;;;4998912;28;20045;-80
2022/11/29 13:10:41;;;;;;;28.77;15.35;;;9.10;99.90;;;;;;4999248;28;20069;-79
2022/11/29 13:13:18;;;;;;;39.50;15.30;;;9.10;99.90;;;;;;4988134;28;20574;-80
2022/11/29 13:15:47;;;;;;;25.45;13.07;;;9.20;99.90;;;;;;5003048;28;20041;-80
2022/11/29 13:18:25;;;;;;;26.17;14.50;;;9.20;99.90;;;;;;5000496;28;20042;-79
2022/11/29 13:21:03;;;;;;;19.67;12.07;;;9.10;99.90;;;;;;4998550;28;20488;-79
2022/11/29 13:23:42;;;;;;;27.65;12.93;;;9.10;99.90;;;;;;4999346;28;20042;-79
2022/11/29 13:26:11;;;;;;;21.77;13.30;;;9.10;99.90;;;;;;4993736;28;20043;-79
2022/11/29 13:28:40;;;;;;;20.27;12.00;;;9.10;99.90;;;;;;4999783;28;20550;-79
2022/11/29 13:31:10;;;;;;;24.23;12.38;;;9.20;99.90;;;;;;4996991;28;20037;-79
2022/11/29 13:33:58;;;;;;;18.83;10.10;;;9.10;99.90;;;;;;4995836;28;20675;-78
2022/11/29 13:36:44;;;;;;;10.30;7.72;;;9.20;99.90;;;;;;4999950;28;20408;-80
2022/11/29 13:39:44;;;;;;;12.30;7.05;;;9.10;99.90;;;;;;4995062;28;20053;-80